Tiempo atmosférico en la estación meteorológica de Miranda De Ebro, Burgos (512 m.)



Fecha
DESCASC
Temp. máxima en grados centígrados (hora)
DESCASC
Temp. mínima en grados centígrados (hora)
DESCASC
Temp. media en grados centígrados
DESCASC
Racha de viento máxima en m/sg (hora)
DESCASC
Velocidad máxima media en intervalos de 10 minutos(hora)
DESCASC
Precipitaciones diarias en mm
DESCASC
Precipitaciones de 00:00 a 06:00 en mm
DESCASC
Precipitaciones de 06:00 a 12:00 en mm
DESCASC
Precipitaciones de 12:00 a 18:00 en mm
DESCASC
Precipitaciones de 18:00 a 24:00 en mm
DESCASC
08-12-2019 10.1 (14:40) 0.3 (07:30) 5.2 8.61 (15:10) 5 (15:50) 2.6 0 0 2.6 0
07-12-2019 14.9 (15:20) 0.8 (05:30) 7.8 2.22 (12:30) 1.39 (03:00) 0 0 0 0 0
06-12-2019 7.9 (16:50) 0 (04:10) 4 2.5 (09:00) 1.39 (08:30) 0 0 0 0 0
05-12-2019 13.3 (13:30) 1.8 (00:00) 7.6 5.83 (06:30) 3.33 (06:30) 0 0 0 0 0
04-12-2019 11.3 (14:50) -1.5 (-00:0) 4.9 6.39 (20:30) 3.61 (16:50) 0 0 0 0 0
03-12-2019 7.4 (16:50) -0.5 (-00:0) 3.5 4.17 (14:40) 2.5 (03:40) 0.8 0.4 0.4 0 0
02-12-2019 9.1 (11:10) 5.2 (00:00) 7.2 7.78 (17:40) 4.17 (17:40) 0.8 0 0.2 0.6 0
01-12-2019 11 (15:00) 3.4 (00:00) 7.2 5.28 (03:00) 2.5 (06:00) 2.6 0 0 1.8 0.8
30-11-2019 12.5 (13:20) 4.2 (00:00) 8.3 8.33 (14:50) 3.61 (17:50) 14.8 0 0 14.8 0
29-11-2019 18.8 (14:40) 7 (00:00) 12.9 8.06 (02:30) 4.72 (02:30) 0.2 0.2 0 0 0
28-11-2019 14.4 (16:50) 11 (00:00) 12.7 11.39 (00:40) 5.28 (00:30) 1.4 0 0 0.2 1.2
27-11-2019 13 (00:00) 9.9 (00:00) 11.4 15 (02:50) 7.78 (02:10) 0.8 0 0 0.6 0.2
26-11-2019 17.1 (14:20) 11.4 (00:00) 14.3 18.33 (21:20) 10.28 (21:30) 2.2 0 0.4 0 1.8
25-11-2019 17.4 (14:40) 7.8 (00:00) 12.6 10 (22:50) 5 (23:10) 0 0 0 0 0
24-11-2019 11.8 (13:20) 4.3 (00:00) 8.1 10 (17:00) 5.83 (22:40) 0.8 0.2 0 0 0.6
23-11-2019 11 (00:40) 6.8 (00:00) 8.9 14.44 (10:30) 7.78 (10:40) 3.6 0.6 3 0 0
22-11-2019 11.1 (19:00) 3.3 (00:00) 7.2 11.67 (21:50) 6.11 (16:20) 5.4 0.2 0.8 4.4 0
21-11-2019 13.5 (14:10) 3.1 (00:00) 8.3 7.5 (05:00) 4.17 (16:00) 0.2 0 0 0.2 0
20-11-2019 9.8 (13:30) 1.5 (00:00) 5.7 7.22 (13:20) 3.61 (12:20) 0 0 0 0 0
19-11-2019 12.2 (14:40) -1 (-00:0) 5.6 6.11 (17:50) 3.33 (17:50) 0 0 0 0 0
18-11-2019 9.6 (13:10) 3.3 (00:00) 6.5 8.06 (11:20) 4.17 (11:20) 1.2 1 0 0.2 0
17-11-2019 9.2 (16:10) 4.1 (00:00) 6.6 10.28 (05:30) 5 (07:10) 0.6 0 0 0.4 0.2
16-11-2019 7.9 (16:30) -1.2 (-00:0) 3.4 10.56 (13:30) 5.83 (12:30) 0 0 0 0 0
15-11-2019 5.6 (11:40) 1.7 (00:00) 3.6 10.83 (11:30) 6.39 (11:30) 6.2 1 3.8 0.8 0.6
14-11-2019 10.9 (00:00) 2.2 (00:00) 6.5 12.22 (00:20) 6.39 (12:10) 11.6 8.8 0 1.2 1.6
13-11-2019 14.6 (13:30) 7.8 (00:00) 11.2 12.22 (23:30) 6.39 (23:30) 7.4 6.6 0.8 0 0
12-11-2019 13.1 (14:50) 2.9 (00:00) 8 8.06 (14:10) 4.72 (14:00) 2 0 0 0 2
11-11-2019 10.7 (14:10) 3.4 (22:30) 7 10 (12:30) 5.28 (12:50) 3 0.2 0 2.4 0.4
10-11-2019 7 (00:00) 3 (00:00) 5 12.5 (00:40) 7.22 (00:40) 27.8 4.6 9.4 12 1.8

Gráficas

Temp. máximas Temp. mínimas Temp. medias Precipitaciones Rachas de viento máximas Velocidades máximas media en intervalos de 10 minutos

Datos horarios

Fecha y hora oficial Temperatura (ºC) Velocidad del viento (km/h) Dirección del viento Racha (km/h) Dirección de racha Precipitación (mm) Presión (hPa) Tendencia (hPa) Humedad (%)
2019-12-09 23:00:00 6.4 2 Noroeste 8 Oeste 0 -- -- 90
2019-12-09 22:00:00 6.8 2 Este 8 Sudeste 0 -- -- 89
2019-12-09 21:00:00 7 4 Sudeste 10 Sudeste 0 -- -- 87
2019-12-09 20:00:00 7.2 3 Sudeste 9 Sudoeste 0 -- -- 86
2019-12-09 19:00:00 8.5 4 Oeste 10 Norte 0 -- -- 79
2019-12-09 18:00:00 9.1 5 Norte 22 Norte 0 -- -- 78
2019-12-09 17:00:00 10.2 6 Norte 17 Noroeste 0 -- -- 72
2019-12-09 16:00:00 11.1 8 Noroeste 21 Noroeste 0 -- -- 65
2019-12-09 15:00:00 11.5 11 Norte 28 Noroeste 0 -- -- 65
2019-12-09 14:00:00 10.6 0 Calma 10 Sudeste 0 -- -- 74
2019-12-09 13:00:00 9.8 3 Sudeste 20 Oeste 0 -- -- 76
2019-12-09 12:00:00 9 12 Sudoeste 30 Oeste 0 -- -- 70
2019-12-09 11:00:00 8.2 19 Sudoeste 35 Sudoeste 0 -- -- 70
2019-12-09 10:00:00 7.5 17 Sudoeste 37 Sudoeste 0 -- -- 73
2019-12-09 09:00:00 6.4 17 Sudoeste 32 Sudoeste 0 -- -- 78
2019-12-09 08:00:00 4.4 13 Sudoeste 23 Sudoeste 0 -- -- 100
2019-12-09 07:00:00 -0.1 2 Sudoeste 9 Norte 0 -- -- 99
2019-12-09 06:00:00 0 4 Noroeste 6 Noroeste 0 -- -- 99
2019-12-09 05:00:00 0 2 Nordeste 9 Norte 0 -- -- 98
2019-12-09 04:00:00 0.3 2 Norte 8 Sudoeste 0 -- -- 98
2019-12-09 03:00:00 1 3 Noroeste 7 Noroeste 0 -- -- 99
2019-12-09 02:00:00 1.2 0 Calma 5 Sudoeste 0 -- -- 97
2019-12-09 01:00:00 2.2 2 Este 7 Este 0 -- -- 98
2019-12-09 00:00:00 2.5 0 Calma 8 Noroeste 0 -- -- 97
2019-12-08 23:00:00 3.7 0 Calma 8 Sudoeste 0 -- -- 97
2019-12-08 22:00:00 5.3 4 Noroeste 10 Sudoeste 0 -- -- 95
2019-12-08 21:00:00 6.9 2 Sudoeste 8 Oeste 0 -- -- 93
2019-12-08 20:00:00 9.5 6 Oeste 17 Oeste 0 -- -- 85
2019-12-08 19:00:00 9.4 12 Oeste 26 Sudoeste 0 -- -- 85
2019-12-08 18:00:00 9.5 13 Oeste 24 Sudoeste 0 -- -- 84
2019-12-08 17:00:00 9.3 14 Oeste 24 Sudoeste 0 -- -- 85
2019-12-08 16:00:00 9.4 17 Sudoeste 31 Oeste 0.2 -- -- 84
2019-12-08 15:00:00 10 14 Oeste 27 Oeste 0.2 -- -- 82
2019-12-08 14:00:00 9.5 9 Oeste 28 Noroeste 1.2 -- -- 91
2019-12-08 13:00:00 8.2 4 Noroeste 19 Oeste 1 -- -- 98
2019-12-08 12:00:00 7.4 0 Calma 6 Sudeste 0 -- -- 98
2019-12-08 11:00:00 5.2 2 Sudeste 6 Norte 0 -- -- 99
2019-12-08 10:00:00 3.2 0 Calma 5 Sudeste 0 -- -- 99
2019-12-08 09:00:00 1.9 3 Norte 9 Este 0 -- -- 99
2019-12-08 08:00:00 0.5 0 Calma 5 Sudeste 0 -- -- 99
2019-12-08 07:00:00 0.5 2 Norte 5 Noroeste 0 -- -- 99
2019-12-08 06:00:00 0.7 3 Sur 8 Sudoeste 0 -- -- 98
2019-12-08 05:00:00 1.5 2 Noroeste 5 Oeste 0 -- -- 98
2019-12-08 04:00:00 1.7 0 Calma 6 Sudeste 0 -- -- 98
2019-12-08 03:00:00 1.7 0 Calma 5 Norte 0 -- -- 98
2019-12-08 02:00:00 1.8 2 Sudoeste 7 Sudoeste 0 -- -- 98
2019-12-08 01:00:00 1.3 0 Calma 6 Este 0 -- -- 98
2019-12-08 00:00:00 1.8 2 Sudeste 5 Noroeste 0 -- -- 97
2019-12-07 23:00:00 2.1 0 Calma 4 Norte 0 -- -- 97
2019-12-07 22:00:00 3.2 2 Sudoeste 5 Noroeste 0 -- -- 97
2019-12-07 21:00:00 3.8 0 Calma 2 Noroeste 0 -- -- 96
2019-12-07 20:00:00 4.5 0 Calma 4 Noroeste 0 -- -- 95
2019-12-07 19:00:00 6.1 2 Sudeste 4 Sur 0 -- -- 94
2019-12-07 18:00:00 8.1 0 Calma 6 Sur 0 -- -- 88
2019-12-07 17:00:00 14 2 Sudeste 5 Sudeste 0 -- -- 67
2019-12-07 16:00:00 11.9 3 Oeste 6 Noroeste 0 -- -- 73
2019-12-07 15:00:00 14.4 2 Norte 6 Noroeste 0 -- -- 65
2019-12-07 14:00:00 10.2 3 Oeste 6 Noroeste 0 -- -- 91
2019-12-07 13:00:00 6.2 0 Calma 8 Sudeste 0 -- -- 95
2019-12-07 12:00:00 4.2 0 Calma 4 Noroeste 0 -- -- 96
2019-12-07 11:00:00 3.2 2 Noroeste 5 Sudoeste 0 -- -- 97
2019-12-07 10:00:00 2.4 2 Noroeste 7 Oeste 0 -- -- 98
2019-12-07 09:00:00 2.5 2 Noroeste 4 Sudeste 0 -- -- 98
2019-12-07 08:00:00 2.5 0 Calma 5 Sudeste 0 -- -- 98
2019-12-07 07:00:00 2.1 2 Sudeste 6 Oeste 0 -- -- 98
2019-12-07 06:00:00 1.3 4 Sudoeste 7 Sudoeste 0 -- -- 98
2019-12-07 05:00:00 1.1 3 Noroeste 5 Noroeste 0 -- -- 98
2019-12-07 04:00:00 1.9 0 Calma 6 Sudoeste 0 -- -- 98
2019-12-07 03:00:00 3.5 5 Oeste 6 Oeste 0 -- -- 98
2019-12-07 02:00:00 3.4 0 Calma 3 Norte 0 -- -- 98
2019-12-07 01:00:00 3.2 0 Calma 4 Noroeste 0 -- -- 98
2019-12-07 00:00:00 2.8 2 Sur 5 Noroeste 0 -- -- 97
2019-12-06 23:00:00 1.2 3 Sudeste 7 Sudoeste 0 -- -- 97
2019-12-06 22:00:00 2.4 4 Sudoeste 6 Sudoeste 0 -- -- 97
2019-12-06 21:00:00 2.6 0 Calma 4 Noroeste 0 -- -- 96
2019-12-06 20:00:00 3.8 3 Noroeste 6 Sudoeste 0 -- -- 95
2019-12-06 19:00:00 4.7 2 Noroeste 4 Sudoeste 0 -- -- 94
2019-12-06 18:00:00 6.1 2 Noroeste 4 Sudoeste 0 -- -- 92
2019-12-06 17:00:00 7.7 0 Calma 5 Noroeste 0 -- -- 86
2019-12-06 16:00:00 6.3 4 Oeste 8 Oeste 0 -- -- 92
2019-12-06 15:00:00 6.3 4 Oeste 8 Oeste 0 -- -- 94
2019-12-06 14:00:00 5.8 3 Noroeste 8 Oeste 0 -- -- 94
2019-12-06 13:00:00 4 3 Noroeste 5 Oeste 0 -- -- 96
2019-12-06 12:00:00 2.8 2 Oeste 6 Sudoeste 0 -- -- 96
2019-12-06 11:00:00 2.2 2 Oeste 6 Noroeste 0 -- -- 98
2019-12-06 10:00:00 1.6 3 Oeste 9 Sudoeste 0 -- -- 98
2019-12-06 09:00:00 1.3 5 Sudoeste 9 Sudoeste 0 -- -- 98
2019-12-06 08:00:00 1.3 3 Sudoeste 6 Oeste 0 -- -- 98
2019-12-06 07:00:00 1.2 3 Sudoeste 5 Oeste 0 -- -- 98
2019-12-06 06:00:00 1 3 Noroeste 6 Sur 0 -- -- 97
2019-12-06 05:00:00 0.8 0 Calma 3 Sudoeste 0 -- -- 98
2019-12-06 04:00:00 0.1 0 Calma 3 Noroeste 0 -- -- 97
2019-12-06 03:00:00 0.6 0 Calma 4 Este 0 -- -- 97
2019-12-06 02:00:00 0.9 0 Calma 5 Oeste 0 -- -- 97
2019-12-06 01:00:00 1.3 3 Oeste 6 Oeste 0 -- -- 97
2019-12-06 00:00:00 1.8 2 Oeste 6 Noroeste 0 -- -- 96
2019-12-05 23:00:00 2.2 2 Noroeste 5 Oeste 0 -- -- 95
2019-12-05 22:00:00 2.9 0 Calma 2 Este 0 -- -- 95
2019-12-05 21:00:00 3.8 0 Calma 4 Sudoeste 0 -- -- 93
2019-12-05 20:00:00 5.2 2 Oeste 6 Norte 0 -- -- 91
2019-12-05 19:00:00 5.7 3 Norte 5 Norte 0 -- -- 88
2019-12-05 18:00:00 7.8 2 Norte 9 Norte 0 -- -- 81
2019-12-05 17:00:00 10.2 6 Norte 18 Nordeste 0 -- -- 73
2019-12-05 16:00:00 11.4 6 Norte 18 Nordeste 0 -- -- 69
2019-12-05 15:00:00 11.6 10 Nordeste 21 Noroeste 0 -- -- 65
2019-12-05 14:00:00 12.5 10 Norte 18 Norte 0 -- -- 66
2019-12-05 13:00:00 12.1 5 Nordeste 13 Norte 0 -- -- 67
2019-12-05 12:00:00 10.6 0 Calma 8 Oeste 0 -- -- 70
2019-12-05 11:00:00 9.4 3 Noroeste 7 Noroeste 0 -- -- 75
2019-12-05 10:00:00 7.7 4 Noroeste 13 Noroeste 0 -- -- 83
2019-12-05 09:00:00 7.2 6 Noroeste 15 Norte 0 -- -- 85
2019-12-05 08:00:00 6.9 2 Norte 9 Norte 0 -- -- 86
2019-12-05 07:00:00 7.2 8 Norte 21 Norte 0 -- -- 83
2019-12-05 06:00:00 7.5 7 Norte 19 Norte 0 -- -- 82
2019-12-05 05:00:00 7.5 4 Este 17 Nordeste 0 -- -- 86
2019-12-05 04:00:00 7.9 11 Norte 20 Norte 0 -- -- 82
2019-12-05 03:00:00 7.9 9 Norte 19 Norte 0 -- -- 87
2019-12-05 02:00:00 7.2 5 Sudeste 11 Sudeste 0 -- -- 85
2019-12-05 01:00:00 7.7 3 Este 17 Norte 0 -- -- 85
2019-12-05 00:00:00 7.9 10 Norte 18 Norte 0 -- -- 81
2019-12-04 23:00:00 8.1 8 Norte 21 Norte 0 -- -- 78
2019-12-04 22:00:00 7.9 6 Noroeste 10 Noroeste 0 -- -- 80
2019-12-04 21:00:00 8.1 8 Noroeste 23 Norte 0 -- -- 79
2019-12-04 20:00:00 7.4 4 Noroeste 15 Norte 0 -- -- 79
2019-12-04 19:00:00 6.8 8 Norte 16 Norte 0 -- -- 79
2019-12-04 18:00:00 7.9 7 Norte 21 Norte 0 -- -- 73
2019-12-04 17:00:00 10.2 11 Norte 22 Norte 0 -- -- 71
2019-12-04 16:00:00 9.7 2 Sudoeste 6 Oeste 0 -- -- 71
2019-12-04 15:00:00 11.2 2 Noroeste 7 Noroeste 0 -- -- 63
2019-12-04 14:00:00 9.7 3 Oeste 6 Oeste 0 -- -- 65
2019-12-04 13:00:00 6.1 3 Oeste 10 Noroeste 0 -- -- 83
2019-12-04 12:00:00 4.9 4 Noroeste 6 Noroeste 0 -- -- 90
2019-12-04 11:00:00 0.8 4 Noroeste 6 Noroeste 0 -- -- 96
2019-12-04 10:00:00 -0.8 3 Norte 5 Este 0 -- -- 97
2019-12-04 09:00:00 -1.5 0 Calma 9 Sudoeste 0 -- -- 98
2019-12-04 08:00:00 -1 5 Oeste 8 Oeste 0 -- -- 97
2019-12-04 07:00:00 -1 0 Calma 8 Sur 0 -- -- 98
2019-12-04 06:00:00 -1.2 2 Oeste 7 Sudoeste 0 -- -- 97
2019-12-04 05:00:00 -0.8 3 Sudeste 7 Noroeste 0 -- -- 97
2019-12-04 04:00:00 -1.3 2 Oeste 6 Sur 0 -- -- 97
2019-12-04 03:00:00 -0.9 3 Noroeste 5 Sudeste 0 -- -- 97
2019-12-04 02:00:00 -1.1 3 Sur 4 Noroeste 0 -- -- 96
2019-12-04 01:00:00 -0.4 3 Oeste 5 Oeste 0 -- -- 96
2019-12-04 00:00:00 -0.3 0 Calma 9 Este 0 -- -- 95
2019-12-03 23:00:00 -0.3 2 Nordeste 8 Noroeste 0 -- -- 94
2019-12-03 22:00:00 0.4 4 Sudoeste 8 Sudoeste 0 -- -- 95
2019-12-03 21:00:00 0.8 0 Calma 5 Este 0 -- -- 93
2019-12-03 20:00:00 1.4 0 Calma 8 Oeste 0 -- -- 89
2019-12-03 19:00:00 3 0 Calma 6 Nordeste 0 -- -- 86
2019-12-03 18:00:00 5 4 Nordeste 9 Nordeste 0 -- -- 77
2019-12-03 17:00:00 6.8 5 Nordeste 15 Nordeste 0 -- -- 69
2019-12-03 16:00:00 6 6 Este 14 Este 0 -- -- 71
2019-12-03 15:00:00 6.1 8 Nordeste 15 Nordeste 0 -- -- 72
2019-12-03 14:00:00 6.4 6 Norte 13 Norte 0 -- -- 73
2019-12-03 13:00:00 6.5 5 Norte 14 Nordeste 0 -- -- 74
2019-12-03 12:00:00 6.1 6 Norte 15 Norte 0 -- -- 75
2019-12-03 11:00:00 5.3 6 Norte 10 Norte 0 -- -- 84
2019-12-03 10:00:00 4.9 4 Norte 13 Norte 0 -- -- 88
2019-12-03 09:00:00 4.1 2 Nordeste 4 Nordeste 0 -- -- 93
2019-12-03 08:00:00 3.9 0 Calma 5 Noroeste 0.2 -- -- 92
2019-12-03 07:00:00 4.1 2 Norte 9 Norte 0.2 -- -- 91
2019-12-03 06:00:00 4.2 7 Norte 12 Norte 0 -- -- 89
2019-12-03 05:00:00 4.4 6 Norte 13 Norte 0 -- -- 87
2019-12-03 04:00:00 4.2 5 Norte 14 Noroeste 0 -- -- 91
2019-12-03 03:00:00 4.4 3 Norte 9 Norte 0.2 -- -- 91
2019-12-03 02:00:00 4.5 5 Norte 10 Noroeste 0.2 -- -- 91
2019-12-03 01:00:00 4.7 4 Noroeste 8 Norte 0 -- -- 88
2019-12-03 00:00:00 5.2 4 Norte 18 Norte 0 -- -- 83
2019-12-02 23:00:00 5.4 8 Norte 16 Noroeste 0 -- -- 81
2019-12-02 22:00:00 5.3 6 Norte 19 Nordeste 0 -- -- 83
2019-12-02 21:00:00 5.5 5 Nordeste 13 Nordeste 0 -- -- 80
2019-12-02 20:00:00 5.7 10 Norte 24 Norte 0 -- -- 78
2019-12-02 19:00:00 5.6 9 Nordeste 19 Nordeste 0 -- -- 77
2019-12-02 18:00:00 6.1 13 Nordeste 28 Norte 0 -- -- 72
2019-12-02 17:00:00 6.8 14 Norte 27 Norte 0 -- -- 74
2019-12-02 16:00:00 7.5 9 Norte 24 Nordeste 0 -- -- 78
2019-12-02 15:00:00 8.1 12 Nordeste 27 Nordeste 0 -- -- 76
2019-12-02 14:00:00 8.7 12 Norte 24 Norte 0 -- -- 81
2019-12-02 13:00:00 8.2 9 Nordeste 18 Nordeste 0.6 -- -- 90
2019-12-02 12:00:00 8.6 7 Norte 14 Norte 0 -- -- 84
2019-12-02 11:00:00 8.8 4 Nordeste 9 Norte 0 -- -- 83
2019-12-02 10:00:00 7.9 3 Norte 9 Nordeste 0 -- -- 90
2019-12-02 09:00:00 6.9 3 Norte 5 Norte 0.2 -- -- 94
2019-12-02 08:00:00 7 2 Norte 10 Norte 0 -- -- 92
2019-12-02 07:00:00 7.1 6 Norte 12 Norte 0 -- -- 89
2019-12-02 06:00:00 6.6 5 Norte 12 Norte 0 -- -- 93
2019-12-02 05:00:00 6.3 0 Calma 4 Nordeste 0 -- -- 95
2019-12-02 04:00:00 6.4 0 Calma 5 Norte 0 -- -- 94
2019-12-02 03:00:00 6.5 3 Norte 9 Norte 0 -- -- 93
2019-12-02 02:00:00 6.3 3 Nordeste 9 Este 0 -- -- 92
2019-12-02 01:00:00 5.8 3 Noroeste 6 Noroeste 0 -- -- 94
2019-12-02 00:00:00 6.6 4 Norte 10 Norte 0.2 -- -- 93
2019-12-01 23:00:00 7.1 3 Oeste 4 Oeste 0.2 -- -- 97
2019-12-01 22:00:00 6.8 2 Sudoeste 6 Oeste 0.2 -- -- 96
2019-12-01 21:00:00 6.5 2 Norte 5 Sudoeste 0 -- -- 96
2019-12-01 20:00:00 6.9 0 Calma 4 Nordeste 0 -- -- 96
2019-12-01 19:00:00 7.4 0 Calma 11 Sudeste 0.2 -- -- 94
2019-12-01 18:00:00 7.8 8 Sudeste 13 Sudeste 1.2 -- -- 93
2019-12-01 17:00:00 8.9 4 Este 13 Nordeste 0.6 -- -- 88
2019-12-01 16:00:00 9.5 6 Sudeste 11 Sudeste 0 -- -- 86
2019-12-01 15:00:00 11 2 Sudeste 9 Este 0 -- -- 78
2019-12-01 14:00:00 10.4 3 Este 9 Sudeste 0 -- -- 82
2019-12-01 13:00:00 9.9 5 Sudeste 12 Sudeste 0 -- -- 85
2019-12-01 12:00:00 9.1 5 Sudeste 9 Nordeste 0 -- -- 87
2019-12-01 11:00:00 8.8 3 Este 9 Sudeste 0 -- -- 89
2019-12-01 10:00:00 7.2 2 Sudeste 11 Sudeste 0 -- -- 94
2019-12-01 09:00:00 5.9 5 Sudeste 12 Sudeste 0 -- -- 96
2019-12-01 08:00:00 6.4 3 Sur 10 Sur 0 -- -- 95
2019-12-01 07:00:00 5.9 4 Sur 10 Sudeste 0 -- -- 97
2019-12-01 06:00:00 5.5 9 Sudeste 14 Sudeste 0 -- -- 98
2019-12-01 05:00:00 5.4 0 Calma 9 Nordeste 0 -- -- 98
2019-12-01 04:00:00 5 2 Noroeste 9 Este 0 -- -- 98
2019-12-01 03:00:00 5.6 6 Oeste 19 Sudoeste 0 -- -- 99
2019-12-01 02:00:00 3.5 0 Calma 5 Noroeste 0 -- -- 98
2019-12-01 01:00:00 3.7 2 Sur 6 Norte 0 -- -- 98
2019-12-01 00:00:00 4.2 0 Calma 5 Noroeste 0 -- -- 97
2019-11-30 23:00:00 4.5 2 Norte 8 Sudeste 0 -- -- 97
2019-11-30 22:00:00 5 2 Noroeste 6 Oeste 0 -- -- 97
2019-11-30 21:00:00 6.3 4 Oeste 10 Sur 0 -- -- 97
2019-11-30 20:00:00 7.3 5 Sudoeste 8 Sudoeste 0 -- -- 96
2019-11-30 19:00:00 8.6 3 Nordeste 19 Sudeste 0 -- -- 96
2019-11-30 18:00:00 8.8 12 Sudeste 23 Sudeste 2.2 -- -- 96
2019-11-30 17:00:00 9 10 Sudeste 17 Sudeste 1.4 -- -- 96
2019-11-30 16:00:00 9.4 9 Este 19 Nordeste 4.6 -- -- 95
2019-11-30 15:00:00 10.8 3 Sur 30 Noroeste 5 -- -- 94
2019-11-30 14:00:00 11.5 4 Sudeste 12 Sudeste 1.6 -- -- 90
2019-11-30 13:00:00 11.5 2 Norte 9 Oeste 0 -- -- 85
2019-11-30 12:00:00 10.7 4 Norte 14 Sudoeste 0 -- -- 87
2019-11-30 11:00:00 10.3 5 Oeste 13 Sudoeste 0 -- -- 85
2019-11-30 10:00:00 9.2 3 Este 13 Norte 0 -- -- 88
2019-11-30 09:00:00 9.5 4 Noroeste 19 Sur 0 -- -- 85
2019-11-30 08:00:00 10.5 6 Sudoeste 19 Sudoeste 0 -- -- 84
2019-11-30 07:00:00 9.9 4 Sur 9 Sur 0 -- -- 89
2019-11-30 06:00:00 9.1 3 Nordeste 10 Nordeste 0 -- -- 93
2019-11-30 05:00:00 8.6 2 Norte 9 Noroeste 0 -- -- 95
2019-11-30 04:00:00 7.7 0 Calma 4 Sudeste 0 -- -- 96
2019-11-30 03:00:00 7.5 2 Oeste 6 Sur 0 -- -- 96
2019-11-30 02:00:00 6.7 0 Calma 6 Sudoeste 0 -- -- 96
2019-11-30 01:00:00 6.6 2 Noroeste 8 Norte 0 -- -- 96
2019-11-30 00:00:00 7.2 0 Calma 4 Oeste 0 -- -- 95
2019-11-29 23:00:00 7.5 2 Oeste 7 Noroeste 0 -- -- 94
2019-11-29 22:00:00 7.4 3 Este 6 Sudeste 0 -- -- 94
2019-11-29 21:00:00 7.8 3 Sudeste 10 Sudeste 0 -- -- 92
2019-11-29 20:00:00 8.1 6 Sudeste 9 Sudeste 0 -- -- 93
2019-11-29 19:00:00 9 0 Calma 5 Sudeste 0 -- -- 89
2019-11-29 18:00:00 11.2 2 Noroeste 8 Sudoeste 0 -- -- 84
2019-11-29 17:00:00 15.2 2 Sur 6 Sudeste 0 -- -- 67
2019-11-29 16:00:00 15.8 0 Calma 8 Sur 0 -- -- 64
2019-11-29 15:00:00 18.7 4 Sur 9 Sudeste 0 -- -- 58
2019-11-29 14:00:00 17.9 2 Sudeste 11 Nordeste 0 -- -- 58
2019-11-29 13:00:00 16.9 5 Nordeste 11 Nordeste 0 -- -- 64
2019-11-29 12:00:00 17.1 5 Este 12 Este 0 -- -- 66
2019-11-29 11:00:00 13.2 3 Sudeste 7 Sudeste 0 -- -- 83
2019-11-29 10:00:00 12.6 3 Sudeste 7 Este 0 -- -- 89
2019-11-29 09:00:00 11.1 0 Calma 5 Este 0 -- -- 94
2019-11-29 08:00:00 10.9 3 Sudeste 6 Sudeste 0 -- -- 94
2019-11-29 07:00:00 11.2 3 Sudeste 10 Nordeste 0 -- -- 92
2019-11-29 06:00:00 11.4 2 Este 5 Este 0 -- -- 93
2019-11-29 05:00:00 11.8 3 Noroeste 13 Sudoeste 0 -- -- 91
2019-11-29 04:00:00 12.1 4 Sudoeste 16 Oeste 0.2 -- -- 92
2019-11-29 03:00:00 12.7 12 Oeste 29 Oeste 0 -- -- 88
2019-11-29 02:00:00 13.1 13 Oeste 25 Oeste 0 -- -- 86
2019-11-29 01:00:00 13 10 Oeste 20 Oeste 0 -- -- 83
2019-11-29 00:00:00 13 10 Oeste 20 Oeste 0 -- -- 81
2019-11-28 23:00:00 12.7 9 Oeste 17 Sudoeste 0.2 -- -- 84
2019-11-28 22:00:00 12.1 5 Oeste 19 Oeste 0 -- -- 88
2019-11-28 21:00:00 12.5 12 Oeste 27 Oeste 0.4 -- -- 84
2019-11-28 20:00:00 12.2 4 Oeste 10 Sudoeste 0.4 -- -- 85
2019-11-28 19:00:00 12.5 3 Sudoeste 19 Oeste 0.2 -- -- 82
2019-11-28 18:00:00 13.5 8 Oeste 36 Oeste 0.2 -- -- 75
2019-11-28 17:00:00 14.3 14 Sudoeste 39 Oeste 0 -- -- 70
2019-11-28 16:00:00 13.9 13 Sudoeste 37 Oeste 0 -- -- 73
2019-11-28 15:00:00 14.1 14 Sudoeste 31 Sudoeste 0 -- -- 71
2019-11-28 14:00:00 13.6 12 Oeste 31 Sudoeste 0 -- -- 74
2019-11-28 13:00:00 13.3 10 Oeste 26 Sudoeste 0 -- -- 76
2019-11-28 12:00:00 13.4 6 Oeste 24 Sudoeste 0 -- -- 76
2019-11-28 11:00:00 12.8 11 Sudoeste 25 Oeste 0 -- -- 79
2019-11-28 10:00:00 12.2 8 Oeste 24 Oeste 0 -- -- 82
2019-11-28 09:00:00 11.8 10 Oeste 26 Oeste 0 -- -- 83
2019-11-28 08:00:00 11.1 8 Oeste 26 Sudoeste 0 -- -- 87
2019-11-28 07:00:00 11.5 10 Oeste 28 Sudoeste 0 -- -- 82
2019-11-28 06:00:00 12 15 Sudoeste 31 Oeste 0 -- -- 77
2019-11-28 05:00:00 11.8 10 Oeste 40 Oeste 0 -- -- 76
2019-11-28 04:00:00 12 15 Oeste 34 Oeste 0 -- -- 74
2019-11-28 03:00:00 11.6 10 Oeste 40 Oeste 0 -- -- 77
2019-11-28 02:00:00 11.7 15 Oeste 36 Oeste 0 -- -- 76
2019-11-28 01:00:00 11.5 15 Oeste 41 Sudoeste 0 -- -- 75
2019-11-28 00:00:00 11.8 17 Oeste 38 Oeste 0 -- -- 73
2019-11-27 23:00:00 11.7 10 Noroeste 24 Oeste 0 -- -- 74
2019-11-27 22:00:00 11.8 8 Oeste 24 Oeste 0 -- -- 76
2019-11-27 21:00:00 11.3 9 Oeste 19 Oeste 0 -- -- 81
2019-11-27 20:00:00 10.3 4 Oeste 14 Oeste 0 -- -- 83
2019-11-27 19:00:00 10.2 5 Noroeste 17 Oeste 0.2 -- -- 81
2019-11-27 18:00:00 10.3 17 Oeste 29 Oeste 0.2 -- -- 80
2019-11-27 17:00:00 11.1 9 Oeste 24 Oeste 0.4 -- -- 83
2019-11-27 16:00:00 11.4 7 Oeste 35 Oeste 0 -- -- 79
2019-11-27 15:00:00 12.4 10 Oeste 26 Oeste 0 -- -- 71
2019-11-27 14:00:00 12.7 14 Oeste 36 Oeste 0 -- -- 69
2019-11-27 06:00:00 -- -- -- -- -- -- -- -- --
2019-11-27 05:00:00 11.3 8 Sur 24 Sudoeste 0 -- -- 70
2019-11-27 04:00:00 11 2 Norte 34 Oeste 0 -- -- 72
2019-11-27 03:00:00 11.5 19 Oeste 54 Noroeste 0 -- -- 70
2019-11-27 02:00:00 12.3 25 Oeste 50 Sudoeste 0 -- -- 70
2019-11-27 01:00:00 12.7 19 Oeste 39 Sudoeste 0 -- -- 72
2019-11-27 00:00:00 13 20 Oeste 53 Oeste 0 -- -- 73
2019-11-26 23:00:00 13.9 26 Oeste 48 Oeste 0.6 -- -- 72
2019-11-26 22:00:00 13.2 19 Oeste 66 Oeste 1.2 -- -- 81
2019-11-26 21:00:00 15.4 19 Sudoeste 46 Sudoeste 0 -- -- 66
2019-11-26 20:00:00 15.7 18 Sudoeste 45 Sudoeste 0 -- -- 72
2019-11-26 19:00:00 15.9 17 Sur 39 Sudoeste 0 -- -- 70
2019-11-26 18:00:00 14.6 15 Sudoeste 31 Sudoeste 0 -- -- 74
2019-11-26 17:00:00 13.8 10 Sur 29 Sur 0 -- -- 77
2019-11-26 16:00:00 14.8 13 Sudeste 35 Sur 0 -- -- 74
2019-11-26 15:00:00 16.2 10 Sur 24 Sur 0 -- -- 71
2019-11-26 14:00:00 15.4 7 Sur 26 Sur 0 -- -- 75
2019-11-26 13:00:00 13.3 9 Sudoeste 23 Sudeste 0 -- -- 78
2019-11-26 12:00:00 14.8 8 Sur 26 Sudoeste 0 -- -- 75
2019-11-26 11:00:00 13.2 7 Sudoeste 19 Sudeste 0.4 -- -- 83
2019-11-26 10:00:00 13 9 Sudeste 21 Sudeste 0 -- -- 73
2019-11-26 09:00:00 12.1 3 Sur 24 Sudoeste 0 -- -- 78
2019-11-26 08:00:00 13.1 13 Sudoeste 40 Sudoeste 0 -- -- 77
2019-11-26 07:00:00 13.1 16 Oeste 38 Sudoeste 0 -- -- 75
2019-11-26 06:00:00 13.3 14 Sudoeste 31 Sudoeste 0 -- -- 73
2019-11-26 05:00:00 13.3 10 Sudoeste 28 Sudoeste 0 -- -- 73
2019-11-26 04:00:00 13.1 7 Oeste 25 Oeste 0 -- -- 73
2019-11-26 03:00:00 13.3 10 Sudoeste 39 Sudoeste 0 -- -- 71
2019-11-26 02:00:00 12.9 16 Oeste 37 Sudoeste 0 -- -- 71
2019-11-26 01:00:00 12.9 20 Oeste 37 Sudoeste 0 -- -- 71
2019-11-26 00:00:00 12.7 9 Sudoeste 35 Sudoeste 0 -- -- 72
2019-11-25 23:00:00 13.2 16 Oeste 36 Oeste 0 -- -- 72
2019-11-25 22:00:00 13 12 Oeste 27 Oeste 0 -- -- 72
2019-11-25 21:00:00 13.2 9 Oeste 17 Oeste 0 -- -- 71
2019-11-25 20:00:00 13.3 8 Sudoeste 20 Oeste 0 -- -- 72
2019-11-25 19:00:00 12.9 5 Oeste 11 Oeste 0 -- -- 72
2019-11-25 18:00:00 13.7 5 Sudoeste 21 Sudoeste 0 -- -- 67
2019-11-25 17:00:00 15.1 11 Oeste 24 Sudoeste 0 -- -- 62
2019-11-25 16:00:00 15.7 10 Oeste 25 Oeste 0 -- -- 62
2019-11-25 15:00:00 16.7 16 Oeste 30 Sudoeste 0 -- -- 58
2019-11-25 14:00:00 16.8 13 Sudoeste 28 Oeste 0 -- -- 61
2019-11-25 13:00:00 16.5 12 Sudoeste 30 Oeste 0 -- -- 66
2019-11-25 12:00:00 15.9 12 Oeste 22 Oeste 0 -- -- 70
2019-11-25 11:00:00 15.1 9 Oeste 22 Sudoeste 0 -- -- 72
2019-11-25 10:00:00 13.6 9 Oeste 18 Oeste 0 -- -- 76
2019-11-25 09:00:00 8.8 4 Oeste 10 Noroeste 0 -- -- 95
2019-11-25 08:00:00 7.9 2 Sudeste 10 Este 0 -- -- 91
2019-11-25 07:00:00 8.4 7 Sudeste 11 Este 0 -- -- 89
2019-11-25 06:00:00 8.4 6 Sudeste 13 Este 0 -- -- 88
2019-11-25 05:00:00 8.4 3 Sudeste 11 Sudoeste 0 -- -- 89
2019-11-25 04:00:00 8.4 4 Sur 16 Sur 0 -- -- 88
2019-11-25 03:00:00 8.7 7 Sudeste 14 Sudeste 0 -- -- 88
2019-11-25 02:00:00 9.2 3 Sur 10 Sudoeste 0 -- -- 89
2019-11-25 01:00:00 9 2 Este 18 Sudoeste 0 -- -- 88
2019-11-25 00:00:00 9.6 8 Oeste 27 Oeste 0 -- -- 86
2019-11-24 23:00:00 9.9 18 Oeste 35 Sudoeste 0 -- -- 82
2019-11-24 22:00:00 9.7 14 Oeste 26 Oeste 0.6 -- -- 82
2019-11-24 21:00:00 10.1 13 Oeste 30 Oeste 0 -- -- 76
2019-11-24 20:00:00 10.3 11 Oeste 27 Sudoeste 0 -- -- 71
2019-11-24 19:00:00 10.2 15 Oeste 33 Oeste 0 -- -- 69
2019-11-24 18:00:00 10 14 Oeste 31 Sudoeste 0 -- -- 68
2019-11-24 17:00:00 10.4 20 Oeste 36 Sudoeste 0 -- -- 63
2019-11-24 16:00:00 10.8 12 Oeste 23 Sudoeste 0 -- -- 64
2019-11-24 15:00:00 11 13 Oeste 33 Sudoeste 0 -- -- 64
2019-11-24 14:00:00 10.8 10 Oeste 31 Sudoeste 0 -- -- 64
2019-11-24 13:00:00 10.3 13 Oeste 31 Oeste 0 -- -- 67
2019-11-24 12:00:00 9.2 15 Oeste 32 Sudoeste 0 -- -- 70
2019-11-24 11:00:00 7.9 15 Oeste 28 Oeste 0 -- -- 73
2019-11-24 10:00:00 6.8 14 Oeste 28 Sudoeste 0 -- -- 76
2019-11-24 09:00:00 6.6 12 Oeste 29 Oeste 0 -- -- 77
2019-11-24 08:00:00 5.8 14 Oeste 27 Oeste 0 -- -- 79
2019-11-24 07:00:00 5.6 6 Sudoeste 18 Oeste 0 -- -- 81
2019-11-24 06:00:00 6.1 10 Oeste 24 Oeste 0 -- -- 80
2019-11-24 05:00:00 6.5 11 Oeste 29 Sudoeste 0 -- -- 78
2019-11-24 04:00:00 7 12 Oeste 22 Sudoeste 0 -- -- 76
2019-11-24 03:00:00 6.6 10 Oeste 23 Sudoeste 0 -- -- 80
2019-11-24 02:00:00 6.9 11 Oeste 20 Sudoeste 0 -- -- 79
2019-11-24 01:00:00 6.9 10 Oeste 22 Sudoeste 0.2 -- -- 81
2019-11-24 00:00:00 7.8 11 Sudoeste 21 Sudoeste 0 -- -- 74
2019-11-23 23:00:00 8.8 9 Sudoeste 21 Oeste 0 -- -- 65
2019-11-23 22:00:00 8.7 15 Oeste 26 Oeste 0 -- -- 70
2019-11-23 21:00:00 8.9 7 Oeste 24 Oeste 0 -- -- 69
2019-11-23 20:00:00 8.9 10 Oeste 22 Oeste 0 -- -- 69
2019-11-23 19:00:00 8.5 12 Oeste 26 Oeste 0 -- -- 74
2019-11-23 18:00:00 8.3 15 Oeste 26 Oeste 0 -- -- 76
2019-11-23 17:00:00 8.5 18 Noroeste 44 Oeste 0 -- -- 76
2019-11-23 16:00:00 9.6 14 Noroeste 35 Noroeste 0 -- -- 72
2019-11-23 15:00:00 9.1 20 Oeste 37 Oeste 0 -- -- 76
2019-11-23 14:00:00 9.2 18 Noroeste 40 Oeste 0 -- -- 72
2019-11-23 13:00:00 9.5 17 Noroeste 37 Noroeste 0 -- -- 70
2019-11-23 12:00:00 7.4 18 Noroeste 41 Oeste 0.4 -- -- 82
2019-11-23 11:00:00 8.1 25 Noroeste 52 Oeste 0 -- -- 73
2019-11-23 10:00:00 7.5 16 Oeste 39 Oeste 0 -- -- 79
2019-11-23 09:00:00 6.9 19 Oeste 42 Oeste 0.4 -- -- 84
2019-11-23 08:00:00 6.8 21 Oeste 44 Oeste 1.2 -- -- 85
2019-11-23 07:00:00 6.9 18 Oeste 39 Oeste 1 -- -- 83
2019-11-23 06:00:00 7.5 21 Oeste 49 Noroeste 0.2 -- -- 79
2019-11-23 05:00:00 8.7 20 Oeste 41 Oeste 0 -- -- 74
2019-11-23 04:00:00 9 22 Oeste 51 Sudoeste 0.4 -- -- 74
2019-11-23 03:00:00 9.7 24 Oeste 48 Sudoeste 0 -- -- 73
2019-11-23 02:00:00 10.7 13 Oeste 36 Sudoeste 0 -- -- 70
2019-11-23 01:00:00 11 10 Oeste 48 Oeste 0 -- -- 71
2019-11-23 00:00:00 10.8 13 Sudoeste 33 Oeste 0 -- -- 72
2019-11-22 23:00:00 11.1 13 Oeste 30 Oeste 0 -- -- 73
2019-11-22 22:00:00 10.9 11 Sudoeste 42 Sudoeste 0 -- -- 72
2019-11-22 21:00:00 9.8 6 Sur 21 Oeste 0 -- -- 76
2019-11-22 20:00:00 10.3 12 Sur 31 Sudoeste 0 -- -- 78
2019-11-22 19:00:00 11.1 12 Sur 32 Sur 0 -- -- 80
2019-11-22 18:00:00 9.9 18 Sudeste 35 Sur 1 -- -- 85
2019-11-22 17:00:00 10.5 12 Sur 40 Sudeste 0 -- -- 81
2019-11-22 16:00:00 10.3 21 Sudeste 37 Sudeste 0.2 -- -- 83
2019-11-22 15:00:00 9.2 14 Sudeste 39 Sudeste 2.6 -- -- 90
2019-11-22 14:00:00 9.3 13 Sudeste 39 Sudeste 0.6 -- -- 86
2019-11-22 13:00:00 10.8 19 Sudeste 39 Sudeste 0 -- -- 75
2019-11-22 12:00:00 9.8 13 Sudeste 32 Sur 0 -- -- 78
2019-11-22 11:00:00 7.9 13 Sudeste 30 Sudeste 0.6 -- -- 87
2019-11-22 10:00:00 7.6 17 Sudeste 29 Sudeste 0.2 -- -- 86
2019-11-22 09:00:00 7.6 13 Sudeste 31 Sudeste 0 -- -- 82
2019-11-22 08:00:00 7 15 Sudeste 27 Sudeste 0 -- -- 83
2019-11-22 07:00:00 6.1 10 Sudeste 21 Sur 0 -- -- 90
2019-11-22 06:00:00 5 3 Oeste 10 Este 0.2 -- -- 94
2019-11-22 05:00:00 4.8 2 Noroeste 7 Sur 0 -- -- 95
2019-11-22 04:00:00 4.5 0 Calma 6 Sudeste 0 -- -- 95
2019-11-22 03:00:00 3.8 3 Noroeste 6 Sudeste 0 -- -- 96
2019-11-22 02:00:00 3.4 2 Sur 9 Oeste 0 -- -- 95
2019-11-22 01:00:00 3.7 3 Noroeste 6 Norte 0 -- -- 94
2019-11-22 00:00:00 3.9 0 Calma 6 Sudeste 0 -- -- 93
2019-11-21 23:00:00 4 2 Noroeste 9 Oeste 0 -- -- 94
2019-11-21 22:00:00 3.1 0 Calma 6 Nordeste 0 -- -- 93
2019-11-21 21:00:00 4.2 3 Norte 9 Sudeste 0 -- -- 88
2019-11-21 20:00:00 5 3 Sudeste 11 Sur 0 -- -- 86
2019-11-21 19:00:00 6.6 6 Sur 12 Sur 0 -- -- 82
2019-11-21 18:00:00 8.2 2 Este 14 Sur 0 -- -- 76
2019-11-21 17:00:00 11.1 6 Sudoeste 23 Sudoeste 0 -- -- 65
2019-11-21 16:00:00 11 15 Sudoeste 26 Sur 0 -- -- 68
2019-11-21 15:00:00 12.5 11 Sur 24 Sur 0 -- -- 67
2019-11-21 14:00:00 12.5 7 Sur 21 Sudoeste 0 -- -- 67
2019-11-21 13:00:00 9 8 Sudoeste 19 Sudoeste 0.2 -- -- 80
2019-11-21 12:00:00 8.4 8 Sur 18 Sudoeste 0 -- -- 82
2019-11-21 11:00:00 8.7 9 Sur 20 Sudoeste 0 -- -- 78
2019-11-21 10:00:00 7.2 9 Sur 18 Sur 0 -- -- 84
2019-11-21 09:00:00 6.2 8 Sudoeste 17 Sur 0 -- -- 87
2019-11-21 08:00:00 -- -- -- -- -- -- -- -- --
2019-11-21 07:00:00 -- -- -- -- -- -- -- -- --
2019-11-21 06:00:00 -- -- -- -- -- -- -- -- --
2019-11-21 05:00:00 -- -- -- -- -- -- -- -- --
2019-11-21 04:00:00 -- -- -- -- -- -- -- -- --
2019-11-21 03:00:00 -- -- -- -- -- -- -- -- --
2019-11-21 02:00:00 -- -- -- -- -- -- -- -- --
2019-11-21 01:00:00 -- -- -- -- -- -- -- -- --
2019-11-21 00:00:00 -- -- -- -- -- -- -- -- --
2019-11-20 23:00:00 -- -- -- -- -- -- -- -- --
2019-11-20 22:00:00 -- -- -- -- -- -- -- -- --
2019-11-20 21:00:00 -- -- -- -- -- -- -- -- --
2019-11-20 20:00:00 -- -- -- -- -- -- -- -- --
2019-11-20 19:00:00 6.2 4 Oeste 15 Sudoeste 0 -- -- 83
2019-11-20 18:00:00 6.2 5 Oeste 10 Oeste 0 -- -- 82
2019-11-20 17:00:00 6.4 3 Oeste 18 Sudoeste 0 -- -- 81
2019-11-20 16:00:00 7 5 Norte 17 Sur 0 -- -- 77
2019-11-20 15:00:00 7.4 4 Sur 17 Sudoeste 0 -- -- 74
2019-11-20 14:00:00 9.4 8 Sur 26 Sudeste 0 -- -- 66
2019-11-20 13:00:00 9.7 10 Sudeste 23 Sudeste 0 -- -- 65
2019-11-20 12:00:00 9.2 10 Sudeste 17 Sudeste 0 -- -- 67
2019-11-20 11:00:00 6.1 7 Sur 12 Sur 0 -- -- 78
2019-11-20 10:00:00 4.7 4 Sudeste 10 Sudeste 0 -- -- 89
2019-11-20 09:00:00 2.3 4 Norte 6 Noroeste 0 -- -- 93
2019-11-20 08:00:00 1.6 0 Calma 7 Noroeste 0 -- -- 90
2019-11-20 07:00:00 3.8 3 Sur 14 Sudeste 0 -- -- 84
2019-11-20 06:00:00 4.4 2 Sur 13 Sur 0 -- -- 80
2019-11-20 05:00:00 4.7 5 Oeste 10 Oeste 0 -- -- 80
2019-11-20 04:00:00 4.6 3 Sudoeste 18 Sudoeste 0 -- -- 79
2019-11-20 03:00:00 4.9 9 Sur 15 Sur 0 -- -- 79
2019-11-20 02:00:00 5.9 4 Sudoeste 15 Sudoeste 0 -- -- 73
2019-11-20 01:00:00 5.1 2 Sudoeste 9 Sur 0 -- -- 80
2019-11-20 00:00:00 6.3 3 Sudoeste 16 Sudoeste 0 -- -- 76
2019-11-19 23:00:00 5.2 2 Sudoeste 9 Sudoeste 0 -- -- 86
2019-11-19 22:00:00 3 0 Calma 5 Este 0 -- -- 92
2019-11-19 21:00:00 3.5 2 Sur 4 Sur 0 -- -- 90
2019-11-19 20:00:00 4.6 0 Calma 11 Oeste 0 -- -- 85
2019-11-19 19:00:00 7.6 8 Oeste 20 Sudoeste 0 -- -- 73
2019-11-19 18:00:00 8 8 Sudoeste 22 Oeste 0 -- -- 71
2019-11-19 17:00:00 8.8 8 Oeste 17 Sudoeste 0 -- -- 68
2019-11-19 16:00:00 9.9 3 Oeste 6 Noroeste 0 -- -- 66
2019-11-19 15:00:00 11.6 2 Norte 6 Nordeste 0 -- -- 61
2019-11-19 14:00:00 9.1 3 Noroeste 7 Noroeste 0 -- -- 80
2019-11-19 13:00:00 4.7 3 Noroeste 6 Noroeste 0 -- -- 93
2019-11-19 12:00:00 2.1 3 Sudoeste 6 Noroeste 0 -- -- 95
2019-11-19 11:00:00 1.6 2 Sudeste 5 Oeste 0 -- -- 96
2019-11-19 10:00:00 0.2 3 Sudeste 5 Sudeste 0 -- -- 97
2019-11-19 09:00:00 -0.5 0 Calma 5 Oeste 0 -- -- 97
2019-11-19 08:00:00 -0.5 0 Calma 3 Noroeste 0 -- -- 97
2019-11-19 07:00:00 -0.9 0 Calma 3 Sudoeste 0 -- -- 97
2019-11-19 06:00:00 0.1 2 Sudoeste 6 Oeste 0 -- -- 97
2019-11-19 05:00:00 0.4 0 Calma 7 Oeste 0 -- -- 96
2019-11-19 04:00:00 0.8 2 Noroeste 8 Oeste 0 -- -- 96
2019-11-19 03:00:00 2 0 Calma 5 Sudoeste 0 -- -- 95
2019-11-19 02:00:00 3.4 2 Noroeste 5 Noroeste 0 -- -- 94
2019-11-19 01:00:00 4 0 Calma 8 Sudoeste 0 -- -- 93
2019-11-19 00:00:00 3.6 3 Sur 4 Sur 0 -- -- 93
2019-11-18 23:00:00 4.6 2 Sudoeste 8 Oeste 0 -- -- 89
2019-11-18 22:00:00 4.1 4 Oeste 10 Sudoeste 0 -- -- 90
2019-11-18 21:00:00 4.9 2 Sudoeste 9 Sudoeste 0 -- -- 88
2019-11-18 20:00:00 3.9 2 Oeste 6 Oeste 0 -- -- 91
2019-11-18 19:00:00 5.7 5 Noroeste 10 Noroeste 0 -- -- 84
2019-11-18 18:00:00 6.4 5 Noroeste 10 Noroeste 0 -- -- 83
2019-11-18 17:00:00 7.2 8 Noroeste 19 Norte 0.2 -- -- 80
2019-11-18 16:00:00 7.4 10 Norte 19 Noroeste 0 -- -- 75
2019-11-18 15:00:00 8.8 6 Norte 22 Noroeste 0 -- -- 69
2019-11-18 14:00:00 7.7 8 Norte 22 Norte 0 -- -- 77
2019-11-18 13:00:00 8.2 12 Norte 26 Norte 0 -- -- 78
2019-11-18 12:00:00 7.3 6 Norte 29 Norte 0 -- -- 80
2019-11-18 11:00:00 7.9 7 Norte 21 Noroeste 0 -- -- 75
2019-11-18 10:00:00 8.9 6 Noroeste 14 Oeste 0 -- -- 73
2019-11-18 09:00:00 5.6 0 Calma 10 Norte 0 -- -- 88
2019-11-18 08:00:00 6 4 Norte 19 Oeste 0 -- -- 84
2019-11-18 07:00:00 6.1 9 Oeste 15 Oeste 0 -- -- 84
2019-11-18 06:00:00 5.1 4 Sudoeste 9 Noroeste 0.4 -- -- 93
2019-11-18 05:00:00 5 4 Noroeste 9 Oeste 0.2 -- -- 94
2019-11-18 04:00:00 4.7 4 Noroeste 9 Oeste 0.2 -- -- 93
2019-11-18 03:00:00 3.8 3 Sudoeste 5 Noroeste 0.2 -- -- 93
2019-11-18 02:00:00 4.6 3 Oeste 13 Noroeste 0 -- -- 90
2019-11-18 01:00:00 5 5 Noroeste 11 Oeste 0 -- -- 88
2019-11-18 00:00:00 5.3 8 Noroeste 27 Noroeste 0.2 -- -- 88
2019-11-17 23:00:00 6.4 16 Noroeste 27 Oeste 0 -- -- 82
2019-11-17 22:00:00 7 13 Noroeste 27 Noroeste 0 -- -- 84
2019-11-17 21:00:00 5.6 2 Oeste 9 Noroeste 0 -- -- 93
2019-11-17 20:00:00 5.5 4 Noroeste 7 Noroeste 0 -- -- 92
2019-11-17 19:00:00 6.4 3 Oeste 9 Oeste 0 -- -- 87
2019-11-17 18:00:00 7.9 0 Calma 10 Sudoeste 0 -- -- 83
2019-11-17 17:00:00 8.7 2 Sudoeste 14 Oeste 0 -- -- 81
2019-11-17 16:00:00 9.1 9 Oeste 21 Sudoeste 0 -- -- 78
2019-11-17 15:00:00 8.8 13 Oeste 30 Oeste 0 -- -- 80
2019-11-17 14:00:00 8.6 9 Noroeste 32 Oeste 0 -- -- 80
2019-11-17 13:00:00 8.4 14 Oeste 26 Noroeste 0.4 -- -- 81
2019-11-17 12:00:00 7.5 14 Oeste 31 Noroeste 0 -- -- 81
2019-11-17 11:00:00 7.1 13 Oeste 27 Oeste 0 -- -- 81
2019-11-17 10:00:00 6.3 7 Oeste 22 Oeste 0 -- -- 83
2019-11-17 09:00:00 6.2 12 Oeste 28 Oeste 0 -- -- 79
2019-11-17 08:00:00 5.9 13 Oeste 30 Oeste 0 -- -- 79
2019-11-17 07:00:00 5.6 17 Oeste 31 Oeste 0 -- -- 79
2019-11-17 06:00:00 5.7 14 Oeste 37 Oeste 0 -- -- 76
2019-11-17 05:00:00 5.3 11 Oeste 27 Oeste 0 -- -- 78
2019-11-17 04:00:00 5.6 14 Oeste 26 Oeste 0 -- -- 75
2019-11-17 03:00:00 5.2 10 Oeste 23 Oeste 0 -- -- 77
2019-11-17 02:00:00 5 13 Oeste 23 Sudoeste 0 -- -- 73
2019-11-17 01:00:00 5.3 10 Oeste 17 Sudoeste 0 -- -- 72
2019-11-17 00:00:00 4.2 3 Noroeste 17 Oeste 0 -- -- 79
2019-11-16 23:00:00 1.9 0 Calma 7 Norte 0 -- -- 91
2019-11-16 22:00:00 2.8 2 Sudoeste 6 Sudoeste 0 -- -- 91
2019-11-16 21:00:00 2.9 2 Norte 10 Sur 0 -- -- 88
2019-11-16 20:00:00 4.6 4 Oeste 8 Sudoeste 0 -- -- 81
2019-11-16 19:00:00 5.7 4 Sudoeste 18 Noroeste 0 -- -- 80
2019-11-16 18:00:00 7.1 12 Noroeste 21 Noroeste 0 -- -- 73
2019-11-16 17:00:00 7.4 9 Noroeste 19 Noroeste 0 -- -- 70
2019-11-16 16:00:00 7.8 12 Oeste 26 Noroeste 0 -- -- 69
2019-11-16 15:00:00 7.8 14 Oeste 36 Oeste 0 -- -- 70
2019-11-16 14:00:00 5.9 18 Oeste 38 Oeste 0 -- -- 76
2019-11-16 13:00:00 5.4 18 Oeste 35 Oeste 0 -- -- 76
2019-11-16 12:00:00 5.3 15 Oeste 36 Oeste 0 -- -- 76
2019-11-16 11:00:00 4.6 13 Oeste 31 Sudoeste 0 -- -- 79
2019-11-16 10:00:00 3.8 9 Oeste 17 Sudoeste 0 -- -- 94
2019-11-16 09:00:00 0 0 Calma 6 Este 0 -- -- 97
2019-11-16 08:00:00 -0.3 4 Sudeste 8 Este 0 -- -- 97
2019-11-16 07:00:00 -0.8 0 Calma 8 Oeste 0 -- -- 97
2019-11-16 06:00:00 -0.8 3 Sudeste 5 Sur 0 -- -- 97
2019-11-16 05:00:00 -0.9 4 Sudeste 6 Este 0 -- -- 97
2019-11-16 04:00:00 -0.4 4 Oeste 8 Oeste 0 -- -- 98
2019-11-16 03:00:00 -0.5 0 Calma 4 Noroeste 0 -- -- 96
2019-11-16 02:00:00 0.1 0 Calma 5 Sur 0 -- -- 95
2019-11-16 01:00:00 1.3 4 Oeste 5 Noroeste 0 -- -- 95
2019-11-16 00:00:00 1.7 2 Oeste 9 Noroeste 0 -- -- 93
2019-11-15 23:00:00 3 3 Oeste 4 Oeste 0 -- -- 93
2019-11-15 22:00:00 3.4 2 Noroeste 9 Norte 0.4 -- -- 92
2019-11-15 21:00:00 3.7 4 Noroeste 8 Noroeste 0 -- -- 90
2019-11-15 20:00:00 3.8 3 Noroeste 11 Noroeste 0.2 -- -- 90
2019-11-15 19:00:00 3.9 6 Noroeste 13 Noroeste 0 -- -- 88
2019-11-15 18:00:00 4.2 7 Noroeste 12 Noroeste 0 -- -- 86
2019-11-15 17:00:00 4.7 6 Noroeste 10 Noroeste 0 -- -- 84
2019-11-15 16:00:00 4.8 7 Oeste 29 Oeste 0 -- -- 84
2019-11-15 15:00:00 5.2 12 Oeste 28 Oeste 0 -- -- 83
2019-11-15 14:00:00 4.9 10 Oeste 27 Oeste 0.4 -- -- 87
2019-11-15 13:00:00 4.7 14 Noroeste 31 Oeste 0.4 -- -- 85
2019-11-15 12:00:00 5 17 Oeste 39 Oeste 0.2 -- -- 85
2019-11-15 11:00:00 5.1 21 Oeste 35 Sudoeste 0.2 -- -- 81
2019-11-15 10:00:00 3.7 18 Oeste 36 Sudoeste 0.8 -- -- 87
2019-11-15 09:00:00 3.7 15 Oeste 33 Oeste 0.6 -- -- 87
2019-11-15 08:00:00 3.5 17 Oeste 36 Oeste 1.6 -- -- 88
2019-11-15 07:00:00 3.8 17 Oeste 30 Oeste 0.4 -- -- 87
2019-11-15 06:00:00 3.4 12 Oeste 28 Oeste 0.6 -- -- 87
2019-11-15 05:00:00 3 15 Oeste 29 Sudoeste 0.2 -- -- 87
2019-11-15 04:00:00 3.7 14 Oeste 27 Oeste 0.2 -- -- 85
2019-11-15 03:00:00 4.3 9 Oeste 20 Sudoeste 0 -- -- 79
2019-11-15 02:00:00 2.6 5 Sur 21 Oeste 0 -- -- 88
2019-11-15 01:00:00 2.3 5 Oeste 13 Sudoeste 0 -- -- 96
2019-11-15 00:00:00 2.2 2 Nordeste 5 Noroeste 0 -- -- 94
2019-11-14 23:00:00 3.6 4 Noroeste 15 Norte 0.2 -- -- 94
2019-11-14 22:00:00 3.9 7 Norte 13 Norte 1.4 -- -- 91
2019-11-14 21:00:00 4 0 Calma 8 Sudoeste 0 -- -- 92
2019-11-14 20:00:00 3.8 0 Calma 10 Oeste 0 -- -- 92
2019-11-14 19:00:00 3.5 2 Sudoeste 5 Sur 0 -- -- 92
2019-11-14 18:00:00 4.9 0 Calma 6 Oeste 0 -- -- 88
2019-11-14 17:00:00 5.3 4 Oeste 38 Sudoeste 1.2 -- -- 83
2019-11-14 16:00:00 8.4 11 Oeste 25 Oeste 0 -- -- 57
2019-11-14 15:00:00 8.6 14 Oeste 33 Sudoeste 0 -- -- 57
2019-11-14 14:00:00 8.7 17 Oeste 38 Oeste 0 -- -- 55
2019-11-14 13:00:00 9.4 18 Oeste 40 Oeste 0 -- -- 58
2019-11-14 12:00:00 9.2 19 Sudoeste 37 Sudoeste 0 -- -- 62
2019-11-14 11:00:00 8.3 8 Sudoeste 21 Sudoeste 0 -- -- 73
2019-11-14 10:00:00 8.2 4 Sudeste 8 Este 0 -- -- 77
2019-11-14 09:00:00 4.6 3 Noroeste 8 Este 0 -- -- 92
2019-11-14 08:00:00 2.8 0 Calma 9 Sudeste 0 -- -- 94
2019-11-14 07:00:00 3.3 3 Sudeste 8 Sudeste 0 -- -- 93
2019-11-14 06:00:00 3.6 3 Nordeste 12 Noroeste 1 -- -- 92
2019-11-14 05:00:00 4 7 Norte 12 Norte 0.8 -- -- 91
2019-11-14 04:00:00 4.5 7 Noroeste 35 Norte 6.4 -- -- 90
2019-11-14 03:00:00 9 20 Oeste 42 Sudoeste 0.6 -- -- 79
2019-11-14 02:00:00 9.7 22 Oeste 38 Oeste 0 -- -- 72
2019-11-14 01:00:00 10.5 17 Oeste 44 Sudoeste 0 -- -- 65
2019-11-14 00:00:00 10.9 14 Oeste 44 Oeste 0 -- -- 63
2019-11-13 23:00:00 11.2 21 Oeste 40 Sudoeste 0 -- -- 65
2019-11-13 22:00:00 9.7 6 Sudeste 11 Sudeste 0 -- -- 85
2019-11-13 21:00:00 8.2 2 Este 8 Este 0 -- -- 91
2019-11-13 20:00:00 7.9 4 Sudeste 8 Sudeste 0 -- -- 90
2019-11-13 19:00:00 7.8 4 Sudeste 10 Sudeste 0 -- -- 89
2019-11-13 18:00:00 9.9 3 Sudeste 9 Noroeste 0 -- -- 81
2019-11-13 17:00:00 13 5 Noroeste 19 Noroeste 0 -- -- 66
2019-11-13 16:00:00 12.6 10 Noroeste 17 Noroeste 0 -- -- 66
2019-11-13 15:00:00 12.8 4 Norte 18 Norte 0 -- -- 71
2019-11-13 14:00:00 12.1 10 Norte 21 Norte 0 -- -- 66
2019-11-13 13:00:00 13.2 9 Norte 19 Norte 0 -- -- 69
2019-11-13 12:00:00 12.8 8 Norte 13 Norte 0 -- -- 72
2019-11-13 11:00:00 11.3 8 Noroeste 19 Norte 0 -- -- 78
2019-11-13 10:00:00 10.3 7 Norte 14 Noroeste 0 -- -- 84
2019-11-13 09:00:00 8.9 8 Noroeste 12 Noroeste 0.2 -- -- 90
2019-11-13 08:00:00 8.2 5 Noroeste 10 Noroeste 0.2 -- -- 94
2019-11-13 07:00:00 8.2 5 Noroeste 10 Oeste 0.4 -- -- 94
2019-11-13 06:00:00 8.2 5 Oeste 8 Oeste 0.2 -- -- 96
2019-11-13 05:00:00 8.2 0 Calma 5 Noroeste 2.4 -- -- 96
2019-11-13 04:00:00 8.2 3 Este 11 Este 2.6 -- -- 96
2019-11-13 03:00:00 8.5 6 Este 12 Este 0.2 -- -- 94
2019-11-13 02:00:00 8.9 5 Sur 13 Sudoeste 0.2 -- -- 93
2019-11-13 01:00:00 8.6 4 Sudoeste 10 Sudoeste 1 -- -- 95
2019-11-13 00:00:00 8.1 3 Sudeste 5 Este 0.6 -- -- 94
2019-11-12 23:00:00 8 3 Sudeste 4 Sudeste 0.2 -- -- 93
2019-11-12 22:00:00 8.2 2 Sudeste 14 Oeste 0.2 -- -- 88
2019-11-12 21:00:00 8.7 4 Oeste 15 Oeste 0.2 -- -- 82
2019-11-12 20:00:00 9.1 5 Sudoeste 18 Sudoeste 0.6 -- -- 82
2019-11-12 19:00:00 9.5 9 Oeste 22 Sudoeste 0.2 -- -- 80
2019-11-12 18:00:00 10.9 13 Oeste 22 Sudoeste 0 -- -- 71
2019-11-12 17:00:00 11.5 2 Sur 12 Noroeste 0 -- -- 69
2019-11-12 16:00:00 12 7 Oeste 23 Sudoeste 0 -- -- 66
2019-11-12 15:00:00 12.3 14 Oeste 29 Oeste 0 -- -- 60
2019-11-12 14:00:00 12.4 17 Oeste 28 Oeste 0 -- -- 59
2019-11-12 13:00:00 12.6 11 Noroeste 29 Oeste 0 -- -- 63
2019-11-12 12:00:00 11.7 12 Noroeste 20 Oeste 0 -- -- 68
2019-11-12 11:00:00 9 9 Sudoeste 21 Sudoeste 0 -- -- 73
2019-11-12 10:00:00 7.9 9 Sudoeste 20 Sudoeste 0 -- -- 76
2019-11-12 09:00:00 6.8 9 Oeste 15 Sudoeste 0 -- -- 83
2019-11-12 08:00:00 5.3 4 Oeste 8 Sudoeste 0 -- -- 95
2019-11-12 07:00:00 4.9 4 Sudoeste 12 Oeste 0 -- -- 96
2019-11-12 06:00:00 4.8 2 Nordeste 6 Este 0 -- -- 96
2019-11-12 05:00:00 4.9 2 Este 13 Oeste 0 -- -- 96
2019-11-12 04:00:00 4 2 Este 4 Este 0 -- -- 96
2019-11-12 03:00:00 4.3 0 Calma 8 Sudoeste -- -- -- 95
2019-11-12 02:00:00 3.9 0 Calma 5 Oeste 0 -- -- 95
2019-11-12 01:00:00 3.2 0 Calma 8 Oeste 0 -- -- 95
2019-11-12 00:00:00 3.8 2 Oeste 9 Oeste 0 -- -- 94
2019-11-11 23:00:00 4.2 4 Sudoeste 9 Oeste 0 -- -- 94
2019-11-11 22:00:00 4.3 3 Oeste 12 Oeste 0 -- -- 91
2019-11-11 21:00:00 6.6 6 Oeste 14 Sudoeste 0.2 -- -- 89
2019-11-11 20:00:00 6.8 7 Noroeste 20 Norte 0 -- -- 84
2019-11-11 19:00:00 7.2 6 Oeste 16 Norte 0.2 -- -- 85
2019-11-11 18:00:00 7.4 6 Oeste 12 Noroeste 0.8 -- -- 90
2019-11-11 17:00:00 8.5 6 Norte 19 Norte 0.2 -- -- 84
2019-11-11 16:00:00 8.4 5 Norte 22 Norte 0.4 -- -- 86
2019-11-11 15:00:00 10.4 8 Noroeste 33 Norte 0 -- -- 66
2019-11-11 14:00:00 10.5 9 Noroeste 29 Oeste 0.8 -- -- 85
2019-11-11 13:00:00 8.6 17 Oeste 36 Oeste 0.2 -- -- 85
2019-11-11 12:00:00 8.7 18 Oeste 33 Oeste 0 -- -- 80
2019-11-11 11:00:00 7.8 16 Oeste 31 Oeste 0 -- -- 81
2019-11-11 10:00:00 6.9 5 Oeste 28 Oeste 0 -- -- 85
2019-11-11 09:00:00 6.3 16 Oeste 29 Sudoeste 0 -- -- 85
2019-11-11 08:00:00 5.7 12 Oeste 20 Sudoeste 0 -- -- 97
2019-11-11 07:00:00 4.4 0 Calma 5 Oeste 0 -- -- 97
2019-11-11 06:00:00 4.1 0 Calma 6 Sudeste 0 -- -- 97
2019-11-11 05:00:00 4 3 Nordeste 6 Este 0 -- -- 97
2019-11-11 04:00:00 4 3 Sudeste 8 Sudeste 0 -- -- 97
2019-11-11 03:00:00 3.9 2 Este 8 Este 0 -- -- 97
2019-11-11 02:00:00 4 2 Norte 5 Sudeste 0.2 -- -- 97
2019-11-11 01:00:00 3.8 0 Calma 5 Sudeste 0 -- -- 96
2019-11-11 00:00:00 3.8 2 Oeste 7 Sudoeste 0.2 -- -- 96
2019-11-10 23:00:00 3.7 4 Sur 8 Sudeste 0.4 -- -- 96
2019-11-10 22:00:00 3.6 5 Nordeste 12 Nordeste 0 -- -- 96
2019-11-10 21:00:00 3.7 2 Este 9 Sudeste 0.2 -- -- 96
2019-11-10 20:00:00 3.5 6 Sudeste 11 Sudeste 1 -- -- 95
2019-11-10 19:00:00 3.8 3 Norte 9 Sudeste 0 -- -- 95
2019-11-10 18:00:00 3.5 5 Sur 15 Sudeste 2.8 -- -- 94
2019-11-10 17:00:00 4.1 7 Este 21 Este 2.8 -- -- 91
2019-11-10 16:00:00 6.8 4 Noroeste 21 Sudoeste 0.8 -- -- 84
2019-11-10 15:00:00 6.1 9 Oeste 22 Sudoeste 0.4 -- -- 85
2019-11-10 14:00:00 5.4 3 Sudoeste 22 Oeste 2.6 -- -- 91
2019-11-10 13:00:00 5.6 5 Sudoeste 10 Sudoeste 2.6 -- -- 89
2019-11-10 12:00:00 3.7 6 Nordeste 11 Nordeste 1 -- -- 92
2019-11-10 11:00:00 3.7 3 Norte 13 Oeste 2.8 -- -- 90
2019-11-10 10:00:00 3.5 3 Oeste 12 Noroeste 2.4 -- -- 92
2019-11-10 09:00:00 3.3 6 Noroeste 22 Oeste 2.4 -- -- 90
2019-11-10 08:00:00 5.1 13 Oeste 27 Sudoeste 0.6 -- -- 83
2019-11-10 07:00:00 5.2 14 Oeste 26 Sudoeste 0.2 -- -- 81
2019-11-10 06:00:00 4.8 11 Oeste 23 Oeste 0 -- -- 83
2019-11-10 05:00:00 4.5 10 Oeste 26 Oeste 0 -- -- 84
2019-11-10 04:00:00 3 2 Sudeste 18 Sudoeste 0 -- -- 91
2019-11-10 03:00:00 4.6 14 Oeste 26 Oeste 2.6 -- -- 86
2019-11-10 02:00:00 5.2 11 Oeste 31 Sudoeste 0.4 -- -- 81
2019-11-10 01:00:00 5 20 Oeste 45 Oeste 1.6 -- -- 81
2019-11-10 00:00:00 7 10 Oeste 21 Oeste 0 -- -- 83